»·PEaware :: N441PW KWDG-KMDF

N441PW :: KWDG-KMDF

FLIGHT INFORMATION

Flight Status: Arrived
Operator: Privately registered:
United States
More flights under this callsign
Pilot: Stacy K. (11621)
Aircraft: CESSNA 404 TITAN
(C404)
More flights by this aircraft type
Origin: KWDG Enid Woodring Regl
United States
Destination: KMDF Mooreland Mun
United States
More flights between these airports :: More routes between these airports
Route:
File this flight plan on PilotEdge
Remarks:
Altitude:
(Current/Filed)
5,500ft
Speed:
(Current/Filed)
190kts
Departed: 14-Jun-19 10:29 AM
Arrived: 14-Jun-19 10:58 AM
Distance/Time
Traveled:
68nm/0:28
Distance/Time
To Go:
Arrived

Flight Plot

Page will automatically refresh every two minutes.

Flight plan parsing failed; only flown route is shown


Map Options




Map Legend


Flown Route
Filed Route
Departure Airport
Arrival Airport
Navaid (VOR, NDB)
Fix

Horizontal Profiles

Position Reports

Time Latitude Longitude Heading Altitude Ground
Speed
14-Jun-19 10:21 36.385786 -97.787197 137 1171ft 0kts
14-Jun-19 10:22 36.385786 -97.787197 137 1171ft 0kts
14-Jun-19 10:23 36.385786 -97.787197 137 1171ft 0kts
14-Jun-19 10:24 36.385786 -97.787197 137 1171ft 0kts
14-Jun-19 10:25 36.385786 -97.787197 137 1171ft 0kts
14-Jun-19 10:26 36.385210 -97.788278 217 1171ft 12kts
14-Jun-19 10:27 36.383681 -97.790581 258 1171ft 0kts
14-Jun-19 10:28 36.380411 -97.791028 180 1172ft 73kts
14-Jun-19 10:29 36.371649 -97.815037 295 2337ft 128kts
14-Jun-19 10:30 36.381976 -97.863865 282 3153ft 156kts
14-Jun-19 10:31 36.386552 -97.917142 282 3950ft 154kts
14-Jun-19 10:32 36.391170 -97.972335 282 4237ft 176kts
14-Jun-19 10:33 36.396039 -98.033338 281 4200ft 177kts
14-Jun-19 10:34 36.409077 -98.091119 294 4201ft 173kts
14-Jun-19 10:35 36.423898 -98.148275 292 4203ft 174kts
14-Jun-19 10:36 36.438365 -98.205925 292 4202ft 174kts
14-Jun-19 10:37 36.452841 -98.263522 293 4101ft 178kts
14-Jun-19 10:38 36.467293 -98.321550 292 4094ft 175kts
14-Jun-19 10:39 36.481822 -98.379974 291 4079ft 181kts
14-Jun-19 10:40 36.496416 -98.438697 293 4098ft 176kts
14-Jun-19 10:41 36.511061 -98.496994 292 4095ft 176kts
14-Jun-19 10:42 36.525431 -98.555601 292 4104ft 178kts
14-Jun-19 10:43 36.540244 -98.615436 292 4086ft 178kts
14-Jun-19 10:44 36.554348 -98.672901 291 4103ft 171kts
14-Jun-19 10:45 36.568639 -98.730875 292 4080ft 175kts
14-Jun-19 10:46 36.582953 -98.789307 291 4083ft 177kts
14-Jun-19 10:47 36.597395 -98.848004 292 4085ft 177kts
14-Jun-19 10:48 36.611732 -98.906902 292 4088ft 177kts
14-Jun-19 10:49 36.626325 -98.966639 292 4098ft 179kts
14-Jun-19 10:50 36.634763 -99.001313 291 4100ft 180kts
14-Jun-19 10:51 36.649379 -99.061497 292 4097ft 179kts
14-Jun-19 10:52 36.656452 -99.123221 275 4015ft 188kts
14-Jun-19 10:53 36.643526 -99.184512 223 3812ft 196kts
14-Jun-19 10:54 36.589494 -99.193809 181 3830ft 201kts
14-Jun-19 10:55 36.539988 -99.194066 181 3052ft 159kts
14-Jun-19 10:56 36.503656 -99.194061 182 2300ft 101kts
14-Jun-19 10:57 36.484033 -99.194173 182 1974ft 24kts
14-Jun-19 10:58 36.482897 -99.192898 188 1974ft 0kts
14-Jun-19 10:59 36.482897 -99.192898 188 1974ft 0kts
14-Jun-19 11:00 36.482897 -99.192898 188 1974ft 0kts
14-Jun-19 11:01 36.482897 -99.192898 188 1974ft 0kts
14-Jun-19 11:03 36.482897 -99.192898 188 1974ft 0kts
14-Jun-19 11:04 36.482897 -99.192898 188 1974ft 0kts
14-Jun-19 11:05 36.482897 -99.192898 188 1974ft 0kts
14-Jun-19 11:06 36.482897 -99.192898 188 1974ft 0kts
14-Jun-19 11:07 36.482897 -99.192898 188 1974ft 0kts
14-Jun-19 11:08 36.482897 -99.192898 188 1974ft 0kts
14-Jun-19 11:09 36.482897 -99.192898 188 1974ft 0kts
14-Jun-19 11:10 36.482897 -99.192898 188 1974ft 0kts
14-Jun-19 11:11 36.482897 -99.192898 188 1974ft 0kts
14-Jun-19 11:12 36.482897 -99.192898 188 1974ft 0kts

Navigation Log

Ident Type
Flight plan parsing failed, navigation log unavailable